Time;durP1;ratioP1;P1;durP2;ratioP2;P2;SDS_P1;SDS_P2;PMS_P1;PMS_P2;Temp;Humidity;BMP_temperature;BMP_pressure;BME280_temperature;BME280_humidity;BME280_pressure;Samples;Min_cycle;Max_cycle;Signal;HPM_P1;HPM_P2
2023/09/18 00:02:26;;;;;;;10.20;5.90;;;21.40;99.90;;;;;;5082073;28;20184;-63
2023/09/18 00:04:52;;;;;;;10.80;6.60;;;21.40;99.90;;;;;;5082922;28;20591;-63
2023/09/18 00:07:18;;;;;;;10.90;6.37;;;21.40;99.90;;;;;;5083994;28;21221;-63
2023/09/18 00:09:44;;;;;;;6.87;5.30;;;21.40;99.90;;;;;;5086508;28;20463;-63
2023/09/18 00:12:09;;;;;;;7.23;6.53;;;21.40;99.90;;;;;;5086318;28;20187;-63
2023/09/18 00:14:36;;;;;;;9.40;5.87;;;21.40;99.90;;;;;;5085545;28;20612;-63
2023/09/18 00:17:03;;;;;;;7.30;6.03;;;21.40;99.90;;;;;;5086324;28;20571;-63
2023/09/18 00:19:28;;;;;;;7.50;6.00;;;21.40;99.90;;;;;;5085391;28;20483;-63
2023/09/18 00:21:54;;;;;;;6.67;5.20;;;21.40;99.90;;;;;;5085954;28;20426;-63
2023/09/18 00:24:20;;;;;;;6.77;6.00;;;21.40;99.90;;;;;;5083961;28;20187;-63
2023/09/18 00:26:47;;;;;;;6.97;5.80;;;21.40;99.90;;;;;;5086447;28;20180;-63
2023/09/18 00:29:13;;;;;;;10.93;5.40;;;21.40;99.90;;;;;;5086037;28;20829;-63
2023/09/18 00:31:39;;;;;;;7.30;6.20;;;21.40;99.90;;;;;;5085810;28;20438;-63
2023/09/18 00:34:05;;;;;;;6.37;5.77;;;21.30;99.90;;;;;;5086333;28;20917;-63
2023/09/18 00:36:30;;;;;;;6.97;5.80;;;21.30;99.90;;;;;;5084850;28;20285;-63
2023/09/18 00:38:56;;;;;;;7.63;5.87;;;21.30;99.90;;;;;;5085734;28;20287;-62
2023/09/18 00:41:22;;;;;;;6.53;5.90;;;21.40;99.90;;;;;;5084762;28;20272;-63
2023/09/18 00:43:47;;;;;;;6.83;5.20;;;21.30;99.90;;;;;;5084330;28;20188;-63
2023/09/18 00:46:13;;;;;;;7.43;6.57;;;21.30;99.90;;;;;;5087055;28;20225;-64
2023/09/18 00:48:39;;;;;;;6.00;5.40;;;21.30;99.90;;;;;;5084864;28;20180;-63
2023/09/18 00:51:06;;;;;;;8.67;5.67;;;21.40;99.90;;;;;;5085747;28;20414;-64
2023/09/18 00:53:32;;;;;;;7.10;5.77;;;21.30;99.90;;;;;;5084562;28;20431;-63
2023/09/18 00:56:00;;;;;;;7.83;5.70;;;21.30;99.90;;;;;;5085517;28;20466;-63
2023/09/18 00:58:27;;;;;;;9.03;6.30;;;21.30;99.90;;;;;;5084211;28;20245;-63
2023/09/18 01:00:53;;;;;;;6.10;5.53;;;21.30;99.90;;;;;;5085364;28;20422;-64
2023/09/18 01:03:21;;;;;;;8.30;5.93;;;21.20;99.90;;;;;;5084377;28;20429;-62
2023/09/18 01:05:47;;;;;;;6.47;5.33;;;21.20;99.90;;;;;;5085194;28;20426;-63
2023/09/18 01:08:13;;;;;;;6.83;5.77;;;21.20;99.90;;;;;;5084684;28;20441;-63
2023/09/18 01:11:03;;;;;;;7.40;5.30;;;21.20;99.90;;;;;;5084804;28;21057;-63
2023/09/18 01:13:44;;;;;;;5.93;5.37;;;21.20;99.90;;;;;;5084120;28;20475;-64
2023/09/18 01:16:23;;;;;;;8.53;6.70;;;21.10;99.90;;;;;;5084978;28;20532;-63
2023/09/18 01:18:50;;;;;;;5.70;5.20;;;21.10;99.90;;;;;;5083801;28;20426;-63
2023/09/18 01:21:18;;;;;;;7.40;5.97;;;21.10;99.90;;;;;;5083999;28;20513;-63
2023/09/18 01:23:44;;;;;;;5.90;5.40;;;21.10;99.90;;;;;;5093478;28;20423;-62
2023/09/18 01:26:09;;;;;;;7.90;5.70;;;21.00;99.90;;;;;;5092976;28;20479;-63
2023/09/18 01:28:35;;;;;;;8.40;6.00;;;21.10;99.90;;;;;;5094320;28;20184;-62
2023/09/18 01:31:01;;;;;;;8.83;5.40;;;21.10;99.90;;;;;;5104761;28;20187;-63
2023/09/18 01:33:28;;;;;;;8.47;5.33;;;21.10;99.90;;;;;;5103855;28;20200;-63
2023/09/18 01:35:55;;;;;;;6.77;5.87;;;21.10;99.90;;;;;;5096487;27;20199;-63
2023/09/18 01:38:23;;;;;;;6.90;5.90;;;21.10;99.90;;;;;;5103631;28;20436;-62
2023/09/18 01:40:51;;;;;;;7.90;6.20;;;21.00;99.90;;;;;;5100063;28;20484;-63
2023/09/18 01:43:17;;;;;;;7.07;6.20;;;21.00;99.90;;;;;;5098965;28;20421;-63
2023/09/18 01:45:43;;;;;;;8.90;6.10;;;21.00;99.90;;;;;;5090469;28;20475;-63
2023/09/18 01:48:09;;;;;;;7.37;5.60;;;21.00;99.90;;;;;;5083987;28;20173;-63
2023/09/18 01:50:36;;;;;;;7.93;5.47;;;21.10;99.90;;;;;;5083832;28;20441;-63
2023/09/18 01:53:03;;;;;;;9.23;5.00;;;21.10;99.90;;;;;;5084694;28;20179;-63
2023/09/18 01:55:29;;;;;;;8.17;6.03;;;21.10;99.90;;;;;;5083349;28;20605;-62
2023/09/18 01:57:55;;;;;;;8.80;5.97;;;21.10;99.90;;;;;;5084447;28;20866;-63
2023/09/18 02:00:21;;;;;;;6.73;5.47;;;21.10;99.90;;;;;;5083698;28;20429;-63
2023/09/18 02:02:47;;;;;;;9.60;5.40;;;21.10;99.90;;;;;;5084555;28;20814;-63
2023/09/18 02:05:13;;;;;;;7.47;4.90;;;21.10;99.90;;;;;;5083849;28;20261;-63
2023/09/18 02:07:39;;;;;;;6.77;5.37;;;21.10;99.90;;;;;;5084701;28;20430;-62
2023/09/18 02:10:05;;;;;;;8.67;5.70;;;21.10;99.90;;;;;;5084897;28;20180;-62
2023/09/18 02:12:31;;;;;;;8.60;6.50;;;21.10;99.90;;;;;;5084156;28;20180;-62
2023/09/18 02:15:04;;;;;;;10.33;5.57;;;21.10;99.90;;;;;;5084055;28;20429;-62
2023/09/18 02:17:30;;;;;;;9.50;6.37;;;21.10;99.90;;;;;;5083566;28;20796;-63
2023/09/18 02:19:56;;;;;;;5.47;4.90;;;21.10;99.90;;;;;;5084100;28;20435;-63
2023/09/18 02:22:21;;;;;;;10.17;5.90;;;21.10;99.90;;;;;;5081863;28;20479;-64
2023/09/18 02:24:47;;;;;;;8.57;5.60;;;21.10;99.90;;;;;;5084166;28;20227;-63
2023/09/18 02:27:13;;;;;;;6.20;5.03;;;21.00;99.90;;;;;;5083170;28;20180;-63
2023/09/18 02:29:38;;;;;;;8.27;6.33;;;21.10;99.90;;;;;;5083699;28;20188;-63
2023/09/18 02:32:04;;;;;;;7.40;5.07;;;21.10;99.90;;;;;;5082265;28;20228;-61
2023/09/18 02:34:30;;;;;;;9.13;5.27;;;21.10;99.90;;;;;;5083185;28;20258;-63
2023/09/18 02:36:56;;;;;;;7.50;5.60;;;21.10;99.90;;;;;;5083497;28;20216;-63
2023/09/18 02:39:22;;;;;;;9.07;6.27;;;21.20;99.90;;;;;;5082540;28;20177;-63
2023/09/18 02:41:47;;;;;;;5.20;4.57;;;21.20;99.90;;;;;;5083807;28;20184;-63
2023/09/18 02:44:13;;;;;;;6.50;4.20;;;21.20;99.90;;;;;;5082940;28;20211;-63
2023/09/18 02:46:39;;;;;;;8.63;4.60;;;21.20;99.90;;;;;;5085742;28;20215;-64
2023/09/18 02:49:05;;;;;;;8.30;4.77;;;21.30;99.90;;;;;;5083676;28;20187;-64
2023/09/18 02:51:31;;;;;;;5.37;4.87;;;21.30;99.90;;;;;;5082974;28;20438;-63
2023/09/18 02:53:57;;;;;;;10.40;4.77;;;21.30;99.90;;;;;;5083496;28;20186;-64
2023/09/18 02:56:23;;;;;;;5.70;4.87;;;21.40;99.90;;;;;;5082151;28;20956;-64
2023/09/18 02:58:49;;;;;;;6.37;5.00;;;21.30;99.90;;;;;;5083439;28;20506;-63
2023/09/18 03:01:14;;;;;;;5.97;4.30;;;21.40;99.90;;;;;;5082729;28;20304;-63
2023/09/18 03:03:41;;;;;;;6.93;5.13;;;21.40;99.90;;;;;;5091932;28;20180;-64
2023/09/18 03:06:07;;;;;;;5.20;4.30;;;21.40;99.90;;;;;;5082849;28;20279;-64
2023/09/18 03:08:34;;;;;;;7.20;4.53;;;21.40;99.90;;;;;;5082801;28;20434;-64
2023/09/18 03:11:00;;;;;;;5.10;4.57;;;21.50;99.90;;;;;;5083100;28;20434;-64
2023/09/18 03:13:28;;;;;;;5.20;4.40;;;21.50;99.90;;;;;;5082445;28;20434;-63
2023/09/18 03:15:53;;;;;;;5.53;4.23;;;21.50;99.90;;;;;;5083307;28;20211;-63
2023/09/18 03:18:19;;;;;;;4.90;3.87;;;21.50;99.90;;;;;;5082298;28;21270;-64
2023/09/18 03:20:45;;;;;;;5.53;4.43;;;21.50;99.90;;;;;;5083385;28;20184;-64
2023/09/18 03:23:11;;;;;;;4.30;3.90;;;21.60;99.90;;;;;;5082851;28;20186;-65
2023/09/18 03:25:37;;;;;;;6.70;4.13;;;21.60;99.90;;;;;;5083473;28;20184;-64
2023/09/18 03:28:03;;;;;;;4.33;3.93;;;21.70;99.90;;;;;;5082834;28;20204;-63
2023/09/18 03:30:29;;;;;;;6.57;4.50;;;21.70;99.90;;;;;;5083178;28;20438;-63
2023/09/18 03:32:55;;;;;;;6.77;4.50;;;21.70;99.90;;;;;;5083159;28;20924;-64
2023/09/18 03:35:21;;;;;;;10.90;4.97;;;21.70;99.90;;;;;;5082260;28;20476;-64
2023/09/18 03:37:48;;;;;;;5.00;4.10;;;21.80;99.90;;;;;;5082929;28;20223;-64
2023/09/18 03:40:14;;;;;;;5.80;4.53;;;21.80;99.90;;;;;;5082321;28;20198;-64
2023/09/18 03:42:40;;;;;;;6.57;4.17;;;21.80;99.90;;;;;;5086136;28;20932;-64
2023/09/18 03:45:07;;;;;;;5.33;4.00;;;21.80;99.90;;;;;;5087861;28;20418;-63
2023/09/18 03:47:39;;;;;;;6.00;4.63;;;21.80;99.90;;;;;;5088609;28;20246;-64
2023/09/18 03:50:06;;;;;;;11.30;4.73;;;21.80;99.90;;;;;;5086636;28;20962;-64
2023/09/18 03:52:31;;;;;;;7.93;4.97;;;21.80;99.90;;;;;;5085354;28;20426;-64
2023/09/18 03:54:57;;;;;;;7.50;4.90;;;21.80;99.90;;;;;;5087020;28;20414;-64
2023/09/18 03:57:23;;;;;;;6.13;4.20;;;21.80;99.90;;;;;;5085779;28;20242;-63
2023/09/18 03:59:49;;;;;;;12.33;4.37;;;21.80;99.90;;;;;;5086941;28;20268;-64
2023/09/18 04:02:14;;;;;;;5.60;4.30;;;21.80;99.90;;;;;;5086174;28;21158;-64
2023/09/18 04:04:40;;;;;;;6.67;4.57;;;21.70;99.90;;;;;;5086646;28;20234;-64
2023/09/18 04:07:07;;;;;;;6.20;4.43;;;21.70;99.90;;;;;;5084516;28;20598;-64
2023/09/18 04:09:34;;;;;;;5.23;4.60;;;21.70;99.90;;;;;;5086942;28;20275;-65
2023/09/18 04:12:05;;;;;;;8.13;4.43;;;21.80;99.90;;;;;;5086427;28;20525;-63
2023/09/18 04:14:31;;;;;;;5.10;4.60;;;21.80;99.90;;;;;;5086560;28;20422;-63
2023/09/18 04:16:57;;;;;;;7.17;4.33;;;21.80;99.90;;;;;;5086203;28;20767;-63
2023/09/18 04:19:22;;;;;;;8.50;4.70;;;21.80;99.90;;;;;;5085722;28;20987;-63
2023/09/18 04:21:48;;;;;;;4.90;4.40;;;21.80;99.90;;;;;;5086463;28;20740;-64
2023/09/18 04:24:14;;;;;;;5.63;4.30;;;21.80;99.90;;;;;;5085821;28;20207;-64
2023/09/18 04:26:40;;;;;;;8.70;5.10;;;21.70;99.90;;;;;;5086291;28;20297;-64
2023/09/18 04:29:05;;;;;;;7.77;4.10;;;21.80;99.90;;;;;;5085054;28;20195;-63
2023/09/18 04:31:31;;;;;;;8.87;4.73;;;21.70;99.90;;;;;;5086234;28;20591;-64
2023/09/18 04:33:57;;;;;;;7.60;4.37;;;21.70;99.90;;;;;;5086358;28;20184;-64
2023/09/18 04:36:24;;;;;;;8.20;4.73;;;21.80;99.90;;;;;;5085959;28;20519;-63
2023/09/18 04:38:50;;;;;;;7.03;4.77;;;21.70;99.90;;;;;;5085999;28;20188;-63
2023/09/18 04:41:16;;;;;;;7.40;4.40;;;21.70;99.90;;;;;;5088112;28;20487;-63
2023/09/18 04:43:45;;;;;;;11.80;5.20;;;21.70;99.90;;;;;;5096240;28;20795;-63
2023/09/18 04:46:11;;;;;;;7.83;5.00;;;21.70;99.90;;;;;;5102240;28;20549;-64
2023/09/18 04:48:37;;;;;;;10.63;4.20;;;21.70;99.90;;;;;;5096795;28;20418;-64
2023/09/18 04:51:06;;;;;;;9.53;5.07;;;21.60;99.90;;;;;;5105288;28;20180;-63
2023/09/18 04:53:32;;;;;;;10.30;4.50;;;21.60;99.90;;;;;;5092753;28;20445;-64
2023/09/18 04:55:58;;;;;;;9.80;4.47;;;21.60;99.90;;;;;;5105136;28;20815;-61
2023/09/18 04:58:24;;;;;;;9.20;4.27;;;21.50;99.90;;;;;;5087595;28;20799;-63
2023/09/18 05:00:57;;;;;;;6.27;4.60;;;21.50;99.90;;;;;;5086143;28;20434;-64
2023/09/18 05:03:23;;;;;;;8.00;3.93;;;21.50;99.90;;;;;;5085325;28;20308;-63
2023/09/18 05:05:49;;;;;;;9.03;4.20;;;21.50;99.90;;;;;;5090267;28;20426;-64
2023/09/18 05:08:16;;;;;;;5.43;4.00;;;21.40;99.90;;;;;;5088090;28;20501;-63
2023/09/18 05:10:42;;;;;;;9.13;4.00;;;21.50;99.90;;;;;;5093910;28;20605;-64
2023/09/18 05:13:08;;;;;;;9.10;4.90;;;21.40;99.90;;;;;;5085027;28;20431;-64
2023/09/18 05:15:33;;;;;;;6.93;4.00;;;21.40;99.90;;;;;;5085407;28;20462;-62
2023/09/18 05:18:00;;;;;;;7.40;4.10;;;21.30;99.90;;;;;;5090444;28;20183;-63
2023/09/18 05:20:27;;;;;;;12.23;4.20;;;21.30;99.90;;;;;;5100916;28;20187;-63
2023/09/18 05:22:54;;;;;;;7.63;4.23;;;21.20;99.90;;;;;;5105597;28;21120;-63
2023/09/18 05:25:25;;;;;;;12.60;5.60;;;21.20;99.90;;;;;;5087493;28;20422;-63
2023/09/18 05:27:56;;;;;;;11.67;4.43;;;21.20;99.90;;;;;;5085437;28;20951;-62
2023/09/18 05:30:28;;;;;;;12.07;4.57;;;21.20;99.90;;;;;;5093684;28;20422;-63
2023/09/18 05:32:54;;;;;;;9.90;4.03;;;21.20;99.90;;;;;;5090190;28;20528;-63
2023/09/18 05:35:21;;;;;;;6.57;4.50;;;21.10;99.90;;;;;;5096114;28;20498;-63
2023/09/18 05:37:47;;;;;;;9.77;4.83;;;21.10;99.90;;;;;;5084858;28;20423;-63
2023/09/18 05:40:13;;;;;;;7.97;5.00;;;21.10;99.90;;;;;;5084319;28;20732;-64
2023/09/18 05:42:45;;;;;;;7.67;4.23;;;21.10;99.90;;;;;;5088657;28;20437;-63
2023/09/18 05:45:14;;;;;;;9.80;4.17;;;21.10;99.90;;;;;;5100599;28;20436;-62
2023/09/18 05:47:42;;;;;;;10.07;3.90;;;21.10;99.90;;;;;;5091291;28;20426;-63
2023/09/18 05:50:09;;;;;;;5.70;4.03;;;21.10;99.90;;;;;;5082828;28;20522;-63
2023/09/18 05:52:35;;;;;;;7.60;4.03;;;21.10;99.90;;;;;;5091298;28;20429;-63
2023/09/18 05:55:06;;;;;;;7.87;3.87;;;21.10;99.90;;;;;;5082683;28;20476;-63
2023/09/18 05:57:32;;;;;;;7.00;3.63;;;21.10;99.90;;;;;;5083135;28;20430;-63
2023/09/18 05:59:58;;;;;;;9.20;4.20;;;21.10;99.90;;;;;;5083289;28;20431;-63
2023/09/18 06:02:27;;;;;;;7.10;3.80;;;21.20;99.90;;;;;;5086575;28;20457;-62
2023/09/18 06:04:57;;;;;;;7.50;3.50;;;21.20;99.90;;;;;;5097241;28;20196;-63
2023/09/18 06:07:24;;;;;;;8.33;4.07;;;21.20;99.90;;;;;;5097309;28;20494;-63
2023/09/18 06:09:50;;;;;;;10.10;3.77;;;21.20;99.90;;;;;;5099460;28;20422;-63
2023/09/18 06:12:16;;;;;;;15.90;4.20;;;21.20;99.90;;;;;;5090989;28;20434;-63
2023/09/18 06:14:42;;;;;;;8.63;4.13;;;21.20;99.90;;;;;;5099858;28;20685;-63
2023/09/18 06:17:09;;;;;;;9.70;4.87;;;21.10;99.90;;;;;;5082692;28;20216;-63
2023/09/18 06:19:35;;;;;;;5.83;4.03;;;21.10;99.90;;;;;;5097844;28;20488;-62
2023/09/18 06:22:01;;;;;;;6.90;3.80;;;21.10;99.90;;;;;;5097277;28;20434;-63
2023/09/18 06:24:27;;;;;;;9.00;4.13;;;21.10;99.90;;;;;;5095998;28;20458;-63
2023/09/18 06:26:53;;;;;;;10.87;3.77;;;21.10;99.90;;;;;;5103124;28;20438;-63
2023/09/18 06:29:19;;;;;;;5.33;3.33;;;21.10;99.90;;;;;;5094416;27;20428;-63
2023/09/18 06:31:45;;;;;;;8.87;3.80;;;21.00;99.90;;;;;;5098204;28;20433;-63
2023/09/18 06:34:11;;;;;;;10.40;4.00;;;21.00;99.90;;;;;;5096563;27;20178;-64
2023/09/18 06:36:37;;;;;;;6.37;3.50;;;21.00;99.90;;;;;;5096927;28;20465;-63
2023/09/18 06:39:03;;;;;;;4.80;3.10;;;21.00;99.90;;;;;;5095620;28;20769;-63
2023/09/18 06:41:29;;;;;;;7.47;3.40;;;21.00;99.90;;;;;;5094467;28;20429;-63
2023/09/18 06:43:55;;;;;;;4.40;3.20;;;21.00;99.90;;;;;;5096697;28;20502;-63
2023/09/18 06:46:20;;;;;;;5.77;3.27;;;21.00;99.90;;;;;;5096086;28;20187;-63
2023/09/18 06:48:49;;;;;;;6.90;3.60;;;21.00;99.90;;;;;;5097232;28;20176;-63
2023/09/18 06:51:15;;;;;;;6.87;3.80;;;21.10;99.90;;;;;;5096764;28;20213;-63
2023/09/18 06:53:41;;;;;;;10.03;3.47;;;21.10;99.90;;;;;;5096467;28;20423;-63
2023/09/18 06:56:09;;;;;;;6.37;3.27;;;21.00;99.90;;;;;;5097617;28;20976;-63
2023/09/18 06:58:34;;;;;;;5.63;3.00;;;21.10;99.90;;;;;;5090840;28;20214;-62
2023/09/18 07:01:00;;;;;;;5.90;3.13;;;21.00;99.90;;;;;;5097841;28;20491;-63
2023/09/18 07:03:26;;;;;;;4.03;2.80;;;21.00;99.90;;;;;;5096652;28;20681;-63
2023/09/18 07:05:51;;;;;;;5.87;3.70;;;21.10;99.90;;;;;;5097496;28;20179;-63
2023/09/18 07:08:22;;;;;;;6.67;3.10;;;21.10;99.90;;;;;;5096078;28;20303;-63
2023/09/18 07:10:50;;;;;;;5.30;3.10;;;21.10;99.90;;;;;;5096500;28;20168;-63
2023/09/18 07:13:16;;;;;;;5.43;3.27;;;21.00;99.90;;;;;;5095691;28;20928;-62
2023/09/18 07:15:41;;;;;;;4.17;3.17;;;21.10;99.90;;;;;;5095897;28;20468;-64
2023/09/18 07:18:07;;;;;;;9.80;3.20;;;21.10;99.90;;;;;;5101511;28;20188;-63
2023/09/18 07:20:33;;;;;;;7.43;3.43;;;21.10;99.90;;;;;;5089000;28;20275;-64
2023/09/18 07:22:59;;;;;;;4.70;2.93;;;21.00;99.90;;;;;;5087563;28;20614;-64
2023/09/18 07:25:24;;;;;;;4.53;2.40;;;21.10;99.90;;;;;;5088218;28;20419;-63
2023/09/18 07:27:50;;;;;;;4.90;3.33;;;21.10;99.90;;;;;;5087557;28;20184;-63
2023/09/18 07:30:16;;;;;;;3.90;2.47;;;21.10;99.90;;;;;;5096108;28;20208;-63
2023/09/18 07:32:43;;;;;;;4.27;2.50;;;21.20;99.90;;;;;;5087798;28;20199;-64
2023/09/18 07:35:09;;;;;;;5.30;2.43;;;21.20;99.90;;;;;;5086743;28;20430;-64
2023/09/18 07:37:36;;;;;;;4.83;2.73;;;21.20;99.90;;;;;;5087900;28;20434;-64
2023/09/18 07:40:03;;;;;;;6.50;2.43;;;21.30;99.90;;;;;;5086823;28;20483;-64
2023/09/18 07:42:29;;;;;;;3.80;2.60;;;21.30;99.90;;;;;;5087937;28;20430;-64
2023/09/18 07:44:55;;;;;;;3.83;2.10;;;21.40;99.90;;;;;;5086965;28;20826;-63
2023/09/18 07:47:20;;;;;;;4.97;2.37;;;21.30;99.90;;;;;;5089337;28;20188;-64
2023/09/18 07:49:47;;;;;;;2.97;1.90;;;21.50;99.90;;;;;;5087541;28;20560;-64
2023/09/18 07:52:13;;;;;;;4.23;2.47;;;21.50;99.90;;;;;;5087211;28;20180;-64
2023/09/18 07:54:38;;;;;;;5.37;2.20;;;21.50;99.90;;;;;;5087520;28;20780;-64
2023/09/18 07:57:04;;;;;;;4.50;2.37;;;21.50;99.90;;;;;;5086584;28;20462;-64
2023/09/18 07:59:30;;;;;;;4.60;2.37;;;21.50;99.90;;;;;;5087256;28;20184;-64
2023/09/18 08:01:56;;;;;;;5.70;2.30;;;21.50;99.90;;;;;;5086956;28;20196;-64
2023/09/18 08:04:21;;;;;;;6.43;2.23;;;21.50;99.90;;;;;;5087385;28;20185;-64
2023/09/18 08:06:47;;;;;;;5.90;2.70;;;21.50;99.90;;;;;;5087236;28;20184;-63
2023/09/18 08:09:15;;;;;;;3.37;2.20;;;21.50;99.90;;;;;;5086744;28;20181;-64
2023/09/18 08:11:42;;;;;;;3.87;2.00;;;21.50;99.90;;;;;;5087037;28;20788;-64
2023/09/18 08:14:11;;;;;;;6.03;2.63;;;21.50;99.90;;;;;;5086351;28;20432;-64
2023/09/18 08:16:40;;;;;;;3.23;2.40;;;21.40;99.90;;;;;;5086946;28;20521;-63
2023/09/18 08:19:06;;;;;;;3.40;2.20;;;21.40;99.90;;;;;;5085942;28;20792;-64
2023/09/18 08:21:32;;;;;;;2.90;1.80;;;21.40;99.90;;;;;;5086778;28;20430;-63
2023/09/18 08:23:58;;;;;;;3.30;2.50;;;21.40;99.90;;;;;;5086175;28;20530;-64
2023/09/18 08:26:25;;;;;;;3.40;2.20;;;21.40;99.90;;;;;;5086914;28;20511;-64
2023/09/18 08:28:51;;;;;;;3.10;2.20;;;21.40;99.90;;;;;;5086555;28;20642;-63
2023/09/18 08:31:16;;;;;;;3.80;2.30;;;21.40;99.90;;;;;;5086492;28;20499;-63
2023/09/18 08:33:43;;;;;;;8.10;2.47;;;21.40;99.90;;;;;;5086813;27;20561;-64
2023/09/18 08:36:09;;;;;;;3.90;2.13;;;21.40;99.90;;;;;;5086526;28;20811;-64
2023/09/18 08:38:35;;;;;;;4.43;2.40;;;21.30;99.90;;;;;;5087509;28;20424;-64
2023/09/18 08:41:01;;;;;;;3.50;2.20;;;21.30;99.90;;;;;;5085934;28;20427;-64
2023/09/18 08:43:29;;;;;;;3.70;2.37;;;21.30;99.90;;;;;;5086837;28;20200;-63
2023/09/18 08:46:00;;;;;;;5.90;2.40;;;21.30;99.90;;;;;;5088216;28;20542;-63
2023/09/18 08:48:34;;;;;;;3.60;1.90;;;21.30;99.90;;;;;;5086315;28;20480;-64
2023/09/18 08:51:02;;;;;;;5.10;2.43;;;21.40;99.90;;;;;;5085833;28;20427;-64
2023/09/18 08:53:30;;;;;;;6.70;2.30;;;21.40;99.90;;;;;;5086973;28;20459;-64
2023/09/18 08:55:58;;;;;;;4.73;2.43;;;21.50;99.90;;;;;;5085582;28;21060;-64
2023/09/18 08:58:26;;;;;;;2.63;2.27;;;21.50;99.90;;;;;;5086739;28;20423;-64
2023/09/18 09:00:53;;;;;;;4.37;2.10;;;21.50;99.90;;;;;;5085358;28;21257;-63
2023/09/18 09:03:18;;;;;;;3.20;2.00;;;21.50;99.90;;;;;;5086202;28;20431;-64
2023/09/18 09:05:44;;;;;;;3.50;2.10;;;21.50;99.90;;;;;;5086068;28;20472;-64
2023/09/18 09:08:10;;;;;;;3.67;2.03;;;21.60;99.90;;;;;;5085420;28;20184;-63
2023/09/18 09:10:35;;;;;;;4.43;2.20;;;21.50;99.90;;;;;;5086153;28;20190;-64
2023/09/18 09:13:02;;;;;;;3.70;2.20;;;21.60;99.90;;;;;;5085565;28;20744;-64
2023/09/18 09:15:32;;;;;;;4.87;2.10;;;21.60;99.90;;;;;;5086133;28;20214;-64
2023/09/18 09:18:06;;;;;;;2.50;1.90;;;21.60;99.90;;;;;;5085155;28;20426;-64
2023/09/18 09:20:32;;;;;;;3.23;2.00;;;21.60;99.90;;;;;;5085922;28;20438;-64
2023/09/18 09:23:02;;;;;;;5.13;2.13;;;21.70;99.90;;;;;;5085222;28;20529;-64
2023/09/18 09:25:31;;;;;;;2.60;1.90;;;21.70;99.90;;;;;;5088966;28;20517;-64
2023/09/18 09:27:58;;;;;;;3.10;1.77;;;21.80;99.90;;;;;;5098896;28;20482;-64
2023/09/18 09:30:26;;;;;;;3.47;1.90;;;21.80;99.90;;;;;;5096534;28;20427;-63
2023/09/18 09:32:53;;;;;;;5.50;2.60;;;21.90;99.90;;;;;;5085058;28;20434;-64
2023/09/18 09:35:34;;;;;;;3.60;2.00;;;22.00;99.90;;;;;;5086039;28;20426;-64
2023/09/18 09:38:01;;;;;;;3.60;2.03;;;22.00;99.90;;;;;;5084881;28;20422;-64
2023/09/18 09:40:29;;;;;;;3.50;1.83;;;21.90;99.90;;;;;;5084946;28;20427;-63
2023/09/18 09:43:04;;;;;;;3.17;2.10;;;21.90;99.90;;;;;;5085230;28;20874;-64
2023/09/18 09:45:34;;;;;;;3.53;1.60;;;21.90;99.90;;;;;;5087874;28;20462;-64
2023/09/18 09:48:02;;;;;;;3.37;1.70;;;21.90;99.90;;;;;;5084880;28;20450;-64
2023/09/18 09:50:28;;;;;;;3.60;1.73;;;21.90;99.90;;;;;;5085720;28;20484;-63
2023/09/18 09:52:55;;;;;;;2.40;1.60;;;21.90;99.90;;;;;;5084803;28;20423;-63
2023/09/18 09:55:30;;;;;;;2.10;1.50;;;21.90;99.90;;;;;;5085766;28;20817;-64
2023/09/18 09:57:57;;;;;;;2.80;1.70;;;21.90;99.90;;;;;;5084232;28;20429;-64
2023/09/18 10:00:45;;;;;;;3.97;1.80;;;21.90;99.90;;;;;;5086045;28;20422;-64
2023/09/18 10:03:14;;;;;;;4.37;2.50;;;21.90;99.90;;;;;;5092682;28;20429;-64
2023/09/18 10:05:42;;;;;;;3.00;1.60;;;21.90;99.90;;;;;;5091043;28;20471;-64
2023/09/18 10:08:10;;;;;;;4.23;1.93;;;22.00;99.90;;;;;;5084456;28;20846;-63
2023/09/18 10:10:39;;;;;;;2.70;1.63;;;22.10;99.90;;;;;;5092357;28;20526;-64
2023/09/18 10:13:31;;;;;;;3.87;1.70;;;22.10;99.90;;;;;;5094429;28;21028;-64
2023/09/18 10:16:02;;;;;;;3.10;2.20;;;22.10;99.90;;;;;;5075851;28;20682;-64
2023/09/18 10:18:52;;;;;;;2.80;1.90;;;22.10;99.90;;;;;;5085850;28;20435;-64
2023/09/18 10:21:31;;;;;;;2.77;2.20;;;22.10;99.90;;;;;;5085139;28;20423;-64
2023/09/18 10:24:22;;;;;;;6.03;2.07;;;22.10;99.90;;;;;;5084269;28;20505;-63
2023/09/18 10:27:04;;;;;;;3.17;2.20;;;22.20;99.90;;;;;;5095855;28;20520;-63
2023/09/18 10:29:32;;;;;;;2.50;1.63;;;22.20;99.90;;;;;;5087188;28;21170;-64
2023/09/18 10:31:58;;;;;;;1.67;1.53;;;22.30;99.90;;;;;;5082457;28;20956;-64
2023/09/18 10:34:25;;;;;;;3.40;1.50;;;22.30;99.90;;;;;;5084858;28;20434;-63
2023/09/18 10:36:53;;;;;;;6.00;1.80;;;22.40;99.90;;;;;;5083768;28;20474;-64
2023/09/18 10:39:35;;;;;;;4.57;2.20;;;22.50;99.90;;;;;;5085024;28;20963;-64
2023/09/18 10:42:03;;;;;;;4.70;1.50;;;22.60;99.90;;;;;;5083738;28;20561;-64
2023/09/18 10:44:31;;;;;;;4.97;2.20;;;22.80;99.90;;;;;;5084936;28;20430;-64
2023/09/18 10:46:58;;;;;;;3.23;1.80;;;22.90;99.90;;;;;;5093348;28;20557;-64
2023/09/18 10:49:25;;;;;;;4.17;1.90;;;23.10;99.90;;;;;;5085073;28;20445;-64
2023/09/18 10:51:55;;;;;;;1.70;1.60;;;23.20;99.90;;;;;;5083396;28;20434;-63
2023/09/18 10:54:23;;;;;;;4.20;1.70;;;23.30;99.90;;;;;;5084904;28;20462;-64
2023/09/18 10:56:48;;;;;;;3.37;1.70;;;23.40;99.90;;;;;;5083486;28;20458;-64
2023/09/18 10:59:16;;;;;;;3.90;1.90;;;23.50;99.90;;;;;;5084118;28;20492;-64
2023/09/18 11:01:42;;;;;;;3.93;1.90;;;23.60;99.90;;;;;;5092408;28;20184;-64
2023/09/18 11:04:10;;;;;;;2.30;1.90;;;23.70;99.90;;;;;;5084333;28;20419;-64
2023/09/18 11:06:53;;;;;;;3.33;1.80;;;23.70;99.90;;;;;;5084291;28;20442;-64
2023/09/18 11:09:40;;;;;;;3.83;2.33;;;23.70;99.90;;;;;;5083452;28;20426;-63
2023/09/18 11:12:08;;;;;;;2.60;2.07;;;23.80;99.90;;;;;;5083329;28;21011;-64
2023/09/18 11:14:56;;;;;;;2.30;1.83;;;23.90;99.90;;;;;;5084764;28;20438;-63
2023/09/18 11:17:34;;;;;;;3.20;1.90;;;24.00;99.90;;;;;;5084352;28;20466;-64
2023/09/18 11:20:17;;;;;;;2.17;1.67;;;24.00;99.90;;;;;;5083754;28;20440;-63
2023/09/18 11:22:56;;;;;;;3.83;1.77;;;24.00;99.90;;;;;;5083917;28;20495;-64
2023/09/18 11:25:42;;;;;;;3.00;1.87;;;24.10;99.90;;;;;;5084668;28;20471;-64
2023/09/18 11:28:18;;;;;;;3.43;2.00;;;24.20;99.90;;;;;;5083623;28;21145;-64
2023/09/18 11:31:01;;;;;;;2.50;1.70;;;24.40;99.90;;;;;;5083820;28;20484;-63
2023/09/18 11:33:31;;;;;;;2.60;2.03;;;24.50;99.90;;;;;;5084595;28;20442;-64
2023/09/18 11:36:03;;;;;;;5.23;1.97;;;24.60;99.90;;;;;;5083375;28;20818;-64
2023/09/18 11:38:29;;;;;;;1.97;1.37;;;24.50;99.90;;;;;;5084536;28;20493;-64
2023/09/18 11:40:55;;;;;;;3.83;1.90;;;24.40;99.90;;;;;;5083371;28;21168;-64
2023/09/18 11:43:25;;;;;;;2.80;1.83;;;24.40;99.90;;;;;;5084157;28;20184;-63
2023/09/18 11:45:55;;;;;;;6.33;2.10;;;24.40;99.90;;;;;;5085657;28;20183;-63
2023/09/18 11:48:24;;;;;;;2.40;2.00;;;24.30;99.90;;;;;;5084342;28;20438;-63
2023/09/18 11:50:52;;;;;;;5.60;2.20;;;24.30;99.90;;;;;;5083818;28;20471;-64
2023/09/18 11:53:18;;;;;;;3.70;2.30;;;24.30;99.90;;;;;;5084547;28;20430;-64
2023/09/18 11:55:44;;;;;;;5.77;1.93;;;24.40;99.90;;;;;;5084198;28;20462;-64
2023/09/18 11:58:10;;;;;;;4.10;1.90;;;24.20;99.90;;;;;;5084007;28;20429;-63
2023/09/18 12:00:45;;;;;;;2.97;1.97;;;24.20;99.90;;;;;;5084762;28;20490;-64
2023/09/18 12:03:25;;;;;;;2.93;2.03;;;24.20;99.90;;;;;;5086148;28;20410;-64
2023/09/18 12:06:05;;;;;;;4.10;1.80;;;24.10;99.90;;;;;;5086906;28;20541;-64
2023/09/18 12:08:31;;;;;;;4.27;1.90;;;24.10;99.90;;;;;;5088209;28;20955;-64
2023/09/18 12:10:57;;;;;;;2.60;1.93;;;24.10;99.90;;;;;;5087346;28;21371;-64
2023/09/18 12:13:27;;;;;;;2.90;1.70;;;24.00;99.90;;;;;;5088324;28;20422;-64
2023/09/18 12:16:00;;;;;;;2.10;1.53;;;23.90;99.90;;;;;;5087392;28;20458;-64
2023/09/18 12:18:28;;;;;;;1.90;1.60;;;23.90;99.90;;;;;;5087675;28;20480;-64
2023/09/18 12:20:55;;;;;;;5.50;1.97;;;23.90;99.90;;;;;;5086692;28;20434;-64
2023/09/18 12:23:23;;;;;;;2.40;1.53;;;23.90;99.90;;;;;;5088336;28;20430;-64
2023/09/18 12:25:56;;;;;;;3.47;2.03;;;23.90;99.90;;;;;;5086503;28;21103;-64
2023/09/18 12:28:22;;;;;;;3.90;1.73;;;24.00;99.90;;;;;;5088191;28;20425;-64
2023/09/18 12:30:50;;;;;;;2.33;1.73;;;24.10;99.90;;;;;;5086586;28;20435;-64
2023/09/18 12:33:17;;;;;;;3.47;2.00;;;24.20;99.90;;;;;;5087344;28;20188;-63
2023/09/18 12:35:42;;;;;;;4.17;2.17;;;24.20;99.90;;;;;;5086251;28;20523;-63
2023/09/18 12:38:22;;;;;;;4.30;1.80;;;24.20;99.90;;;;;;5086893;28;20453;-64
2023/09/18 12:40:49;;;;;;;4.17;2.10;;;24.30;99.90;;;;;;5086444;28;20802;-63
2023/09/18 12:43:15;;;;;;;2.70;1.60;;;24.40;99.90;;;;;;5087368;28;20422;-64
2023/09/18 12:45:42;;;;;;;3.83;2.43;;;24.60;99.90;;;;;;5088448;28;20441;-63
2023/09/18 12:48:10;;;;;;;3.67;2.30;;;24.70;99.90;;;;;;5086789;28;20414;-64
2023/09/18 12:50:35;;;;;;;4.33;2.37;;;24.80;99.90;;;;;;5087576;28;20429;-64